Time;durP1;ratioP1;P1;durP2;ratioP2;P2;SDS_P1;SDS_P2;PMS_P1;PMS_P2;Temp;Humidity;BMP_temperature;BMP_pressure;BME280_temperature;BME280_humidity;BME280_pressure;Samples;Min_cycle;Max_cycle;Signal;HPM_P1;HPM_P2
2021/05/07 00:00:54;;;;;;;12.30;7.37;;;6.60;99.90;;;;;;5046054;28;20212;-69
2021/05/07 00:03:21;;;;;;;10.57;7.17;;;6.70;99.90;;;;;;5045477;28;20203;-69
2021/05/07 00:05:54;;;;;;;11.80;8.17;;;6.50;99.90;;;;;;5039336;28;20636;-69
2021/05/07 00:08:20;;;;;;;12.37;7.97;;;6.50;99.90;;;;;;5048762;28;20230;-69
2021/05/07 00:10:47;;;;;;;12.77;6.93;;;6.50;99.90;;;;;;5050816;28;20290;-69
2021/05/07 00:13:13;;;;;;;9.17;6.67;;;6.60;99.90;;;;;;5052507;28;20553;-69
2021/05/07 00:15:39;;;;;;;11.00;6.87;;;6.60;99.90;;;;;;5053419;28;20200;-69
2021/05/07 00:18:06;;;;;;;11.13;7.67;;;6.60;99.90;;;;;;5052667;28;20203;-68
2021/05/07 00:20:33;;;;;;;10.77;7.70;;;6.70;99.90;;;;;;5053027;28;20203;-69
2021/05/07 00:22:59;;;;;;;10.70;7.70;;;6.70;99.90;;;;;;5050721;28;20660;-69
2021/05/07 00:25:25;;;;;;;13.23;8.07;;;6.70;99.90;;;;;;5051356;28;20206;-69
2021/05/07 00:27:59;;;;;;;11.23;7.47;;;6.70;99.90;;;;;;5052078;28;20683;-69
2021/05/07 00:30:25;;;;;;;11.43;7.90;;;6.70;99.90;;;;;;5032006;28;20199;-69
2021/05/07 00:32:52;;;;;;;11.27;7.80;;;6.70;99.90;;;;;;5052896;28;20210;-69
2021/05/07 00:35:18;;;;;;;10.67;7.27;;;6.90;99.90;;;;;;5053116;28;20194;-69
2021/05/07 00:37:45;;;;;;;16.67;8.93;;;6.90;99.90;;;;;;5040925;28;20654;-69
2021/05/07 00:40:13;;;;;;;12.60;8.23;;;6.90;99.90;;;;;;5049283;28;20575;-68
2021/05/07 00:42:39;;;;;;;11.63;8.30;;;6.90;99.90;;;;;;5042224;28;20200;-69
2021/05/07 00:45:07;;;;;;;15.20;9.17;;;7.10;99.90;;;;;;5051694;28;20199;-69
2021/05/07 00:47:38;;;;;;;10.80;8.10;;;7.20;99.90;;;;;;5050340;28;20199;-69
2021/05/07 00:50:06;;;;;;;11.27;8.23;;;7.20;99.90;;;;;;5047500;28;20256;-69
2021/05/07 00:52:34;;;;;;;12.73;8.30;;;7.10;99.90;;;;;;5052579;28;20564;-69
2021/05/07 00:55:02;;;;;;;13.43;9.03;;;7.00;99.90;;;;;;5052836;28;20205;-68
2021/05/07 00:57:28;;;;;;;13.77;8.53;;;6.90;99.90;;;;;;5051354;28;20653;-69
2021/05/07 00:59:55;;;;;;;15.37;9.70;;;7.10;99.90;;;;;;5052272;28;20636;-68
2021/05/07 01:02:22;;;;;;;14.60;9.50;;;7.00;99.90;;;;;;5052307;28;20294;-69
2021/05/07 01:04:48;;;;;;;15.30;10.40;;;7.00;99.90;;;;;;5052781;28;20549;-68
2021/05/07 01:07:14;;;;;;;17.50;11.50;;;6.90;99.90;;;;;;5049799;28;20199;-69
2021/05/07 01:09:41;;;;;;;16.13;10.77;;;6.90;99.90;;;;;;5051064;28;20206;-69
2021/05/07 01:12:09;;;;;;;16.87;11.50;;;6.90;99.90;;;;;;5050951;28;20342;-69
2021/05/07 01:14:35;;;;;;;15.03;10.53;;;6.90;99.90;;;;;;5052045;28;20214;-69
2021/05/07 01:17:02;;;;;;;17.57;11.70;;;6.70;99.90;;;;;;5052021;28;20219;-69
2021/05/07 01:19:28;;;;;;;16.37;11.10;;;6.60;99.90;;;;;;5052264;28;20195;-69
2021/05/07 01:21:56;;;;;;;18.23;11.60;;;6.60;99.90;;;;;;5043700;28;20206;-69
2021/05/07 01:24:25;;;;;;;19.63;11.87;;;6.60;99.90;;;;;;5047275;28;20199;-69
2021/05/07 01:26:52;;;;;;;17.83;11.83;;;6.60;99.90;;;;;;5048217;28;20219;-69
2021/05/07 01:29:19;;;;;;;16.83;11.07;;;6.50;99.90;;;;;;5051689;28;20223;-68
2021/05/07 01:31:46;;;;;;;16.90;11.70;;;6.50;99.90;;;;;;5046821;28;20212;-68
2021/05/07 01:34:13;;;;;;;18.47;11.37;;;6.60;99.90;;;;;;5052211;28;20210;-69
2021/05/07 01:36:39;;;;;;;19.23;12.00;;;6.80;99.90;;;;;;5045947;28;20211;-69
2021/05/07 01:39:07;;;;;;;17.93;12.07;;;6.80;99.90;;;;;;5047119;28;20195;-69
2021/05/07 01:41:33;;;;;;;18.23;12.60;;;6.80;99.90;;;;;;5047657;28;20199;-69
2021/05/07 01:43:59;;;;;;;18.30;12.30;;;6.70;99.90;;;;;;5048558;28;20253;-68
2021/05/07 01:46:26;;;;;;;18.47;12.53;;;6.60;99.90;;;;;;5050950;28;21525;-69
2021/05/07 01:48:52;;;;;;;19.90;11.93;;;6.70;99.90;;;;;;5045446;28;20230;-68
2021/05/07 01:51:18;;;;;;;17.07;11.97;;;6.80;99.90;;;;;;5051420;28;20256;-68
2021/05/07 01:53:45;;;;;;;19.77;12.63;;;6.90;99.90;;;;;;5066056;22;20190;-79
2021/05/07 01:56:12;;;;;;;17.90;11.73;;;6.90;99.90;;;;;;5049480;28;20207;-79
2021/05/07 01:58:39;;;;;;;17.17;12.10;;;6.90;99.90;;;;;;5054113;28;20219;-78
2021/05/07 02:01:05;;;;;;;17.53;12.43;;;6.80;99.90;;;;;;5052034;28;20252;-79
2021/05/07 02:03:31;;;;;;;19.17;11.90;;;6.70;99.90;;;;;;5048811;28;20203;-79
2021/05/07 02:05:57;;;;;;;19.73;12.90;;;6.70;99.90;;;;;;5052870;28;20290;-79
2021/05/07 02:08:27;;;;;;;17.73;12.20;;;6.80;99.90;;;;;;5053327;28;20276;-78
2021/05/07 02:10:53;;;;;;;20.70;12.60;;;6.90;99.90;;;;;;5052675;28;20643;-79
2021/05/07 02:13:20;;;;;;;19.07;12.27;;;7.00;99.90;;;;;;5055759;28;20242;-79
2021/05/07 02:15:47;;;;;;;18.53;12.60;;;7.10;99.90;;;;;;5052154;28;20658;-79
2021/05/07 02:18:13;;;;;;;18.20;12.27;;;7.00;99.90;;;;;;5048263;28;20217;-79
2021/05/07 02:20:40;;;;;;;19.40;12.53;;;7.00;99.90;;;;;;5052054;28;20237;-79
2021/05/07 02:23:08;;;;;;;23.87;13.03;;;7.00;99.90;;;;;;5052101;28;20226;-78
2021/05/07 02:25:34;;;;;;;19.23;11.67;;;7.00;99.90;;;;;;5052754;28;20203;-79
2021/05/07 02:28:01;;;;;;;16.60;11.50;;;6.90;99.90;;;;;;5053650;28;20231;-79
2021/05/07 02:30:30;;;;;;;20.83;12.10;;;6.90;99.90;;;;;;5054816;28;20225;-80
2021/05/07 02:32:56;;;;;;;18.13;11.67;;;7.00;99.90;;;;;;5049639;28;20207;-80
2021/05/07 02:35:23;;;;;;;17.17;11.23;;;6.90;99.90;;;;;;5047321;28;20209;-80
2021/05/07 02:37:50;;;;;;;16.80;10.50;;;6.80;99.90;;;;;;5078903;22;20266;-89
2021/05/07 02:40:16;;;;;;;15.10;10.13;;;6.50;99.90;;;;;;5047260;28;20274;-90
2021/05/07 02:42:42;;;;;;;14.73;9.70;;;6.30;99.90;;;;;;5050984;28;20679;-88
2021/05/07 02:45:10;;;;;;;17.00;9.67;;;6.10;99.90;;;;;;5050450;28;20240;-88
2021/05/07 02:47:38;;;;;;;16.23;9.87;;;6.10;99.90;;;;;;5056177;28;20240;-89
2021/05/07 02:50:07;;;;;;;12.87;8.97;;;6.30;99.90;;;;;;5052270;28;20675;-89
2021/05/07 02:52:33;;;;;;;13.63;9.10;;;6.20;99.90;;;;;;5059412;28;20202;-89
2021/05/07 02:55:01;;;;;;;14.30;9.60;;;6.20;99.90;;;;;;5053827;28;20905;-89
2021/05/07 02:57:27;;;;;;;12.13;7.57;;;6.10;99.90;;;;;;5050171;28;20226;-89
2021/05/07 02:59:53;;;;;;;9.27;7.17;;;5.80;99.90;;;;;;5051452;28;20218;-89
2021/05/07 03:02:20;;;;;;;8.43;6.47;;;5.50;99.90;;;;;;5056818;28;20225;-89
2021/05/07 03:04:47;;;;;;;9.67;6.37;;;5.60;99.90;;;;;;5036086;28;20204;-89
2021/05/07 03:07:13;;;;;;;8.43;5.97;;;5.50;99.90;;;;;;5051713;28;20307;-89
2021/05/07 03:09:39;;;;;;;10.20;6.60;;;5.30;99.90;;;;;;5060208;28;20260;-89
2021/05/07 03:12:06;;;;;;;9.93;6.80;;;5.20;99.90;;;;;;5052826;28;20213;-89
2021/05/07 03:14:33;;;;;;;10.80;6.90;;;5.20;99.90;;;;;;5049200;28;20218;-89
2021/05/07 03:16:59;;;;;;;9.97;7.30;;;5.10;99.90;;;;;;5050596;28;20227;-89
2021/05/07 03:19:25;;;;;;;10.90;7.40;;;5.20;99.90;;;;;;5050736;28;20578;-88
2021/05/07 03:21:52;;;;;;;11.20;7.63;;;5.20;99.90;;;;;;5061892;28;20214;-90
2021/05/07 03:24:19;;;;;;;11.27;8.17;;;5.20;99.90;;;;;;5058666;28;20209;-89
2021/05/07 03:26:45;;;;;;;12.53;8.53;;;5.10;99.90;;;;;;5054846;28;20223;-88
2021/05/07 03:29:11;;;;;;;10.17;7.07;;;5.10;99.90;;;;;;5055296;28;20711;-88
2021/05/07 03:31:38;;;;;;;9.10;6.57;;;5.00;99.90;;;;;;5057056;28;20203;-88
2021/05/07 03:34:04;;;;;;;8.70;6.33;;;4.90;99.90;;;;;;5055375;28;20622;-88
2021/05/07 03:36:31;;;;;;;9.03;6.13;;;5.10;99.90;;;;;;5054777;28;20659;-89
2021/05/07 03:38:58;;;;;;;11.37;7.03;;;5.00;99.90;;;;;;5054939;28;20206;-88
2021/05/07 03:41:25;;;;;;;10.57;7.63;;;5.00;99.90;;;;;;5057216;28;20695;-89
2021/05/07 03:43:51;;;;;;;10.67;6.60;;;5.20;99.90;;;;;;5055186;28;20231;-88
2021/05/07 03:46:18;;;;;;;9.97;6.87;;;4.90;99.90;;;;;;5054171;28;20196;-88
2021/05/07 03:48:44;;;;;;;10.70;7.00;;;4.90;99.90;;;;;;5054776;28;20219;-88
2021/05/07 03:51:10;;;;;;;9.23;6.37;;;4.80;99.90;;;;;;5055108;28;20199;-88
2021/05/07 03:53:37;;;;;;;9.20;6.43;;;4.70;99.90;;;;;;5054969;28;20199;-88
2021/05/07 03:56:04;;;;;;;9.47;6.50;;;4.70;99.90;;;;;;5054667;28;20746;-88
2021/05/07 03:58:31;;;;;;;9.67;5.70;;;4.60;99.90;;;;;;5054836;28;20334;-90
2021/05/07 04:00:57;;;;;;;8.00;5.77;;;4.50;99.90;;;;;;5050017;28;20210;-88
2021/05/07 04:03:23;;;;;;;9.43;6.50;;;4.60;99.90;;;;;;5048739;28;20207;-88
2021/05/07 04:05:52;;;;;;;9.43;6.43;;;4.70;99.90;;;;;;5054637;28;20215;-88
2021/05/07 04:08:22;;;;;;;8.20;5.57;;;4.60;99.90;;;;;;5053970;28;20227;-88
2021/05/07 04:10:52;;;;;;;9.10;6.07;;;4.80;99.90;;;;;;5053956;28;20214;-88
2021/05/07 04:13:39;;;;;;;9.70;6.77;;;4.70;99.90;;;;;;5053463;28;20261;-89
2021/05/07 04:16:06;;;;;;;9.23;6.13;;;4.60;99.90;;;;;;5038764;28;20691;-89
2021/05/07 04:18:33;;;;;;;10.23;6.50;;;4.70;99.90;;;;;;5051780;28;20222;-88
2021/05/07 04:20:59;;;;;;;7.53;5.40;;;4.80;99.90;;;;;;5061784;28;20198;-88
2021/05/07 04:23:26;;;;;;;10.00;6.30;;;4.60;99.90;;;;;;5058170;28;20214;-89
2021/05/07 04:25:52;;;;;;;10.67;7.33;;;4.60;99.90;;;;;;5034587;28;20672;-85
2021/05/07 04:28:19;;;;;;;8.53;6.57;;;4.60;99.90;;;;;;5049042;28;20230;-85
2021/05/07 04:30:46;;;;;;;9.47;6.80;;;4.50;99.90;;;;;;5052530;28;20199;-85
2021/05/07 04:33:12;;;;;;;9.83;6.17;;;4.60;99.90;;;;;;5052883;28;20206;-86
2021/05/07 04:35:38;;;;;;;10.40;6.93;;;4.60;99.90;;;;;;5053664;28;20678;-86
2021/05/07 04:38:05;;;;;;;12.30;7.00;;;4.60;99.90;;;;;;5052798;28;20699;-86
2021/05/07 04:40:32;;;;;;;11.67;7.37;;;4.60;99.90;;;;;;5052138;28;20268;-86
2021/05/07 04:43:01;;;;;;;11.20;6.77;;;4.70;99.90;;;;;;5053521;28;20211;-85
2021/05/07 04:45:28;;;;;;;8.77;6.17;;;4.70;99.90;;;;;;5056194;28;20290;-85
2021/05/07 04:47:54;;;;;;;9.23;6.43;;;4.60;99.90;;;;;;5055701;28;20244;-86
2021/05/07 04:50:21;;;;;;;10.10;6.43;;;4.80;99.90;;;;;;5059801;28;20199;-86
2021/05/07 04:52:47;;;;;;;9.47;6.40;;;4.80;99.90;;;;;;5053785;28;20207;-85
2021/05/07 04:55:14;;;;;;;8.47;6.20;;;4.90;99.90;;;;;;5053325;28;20659;-86
2021/05/07 04:57:40;;;;;;;8.47;6.30;;;4.90;99.90;;;;;;5053236;28;20268;-85
2021/05/07 05:00:07;;;;;;;9.10;5.83;;;4.90;99.90;;;;;;5046139;28;20594;-86
2021/05/07 05:02:35;;;;;;;10.20;5.90;;;5.00;99.90;;;;;;5052621;28;20205;-86
2021/05/07 05:05:01;;;;;;;9.17;6.03;;;5.10;99.90;;;;;;5053597;28;20207;-86
2021/05/07 05:07:27;;;;;;;9.53;5.70;;;5.10;99.90;;;;;;5052730;28;20221;-86
2021/05/07 05:09:53;;;;;;;7.57;5.23;;;5.10;99.90;;;;;;5048813;28;20219;-85
2021/05/07 05:12:20;;;;;;;7.37;4.90;;;5.10;99.90;;;;;;5051514;28;20195;-85
2021/05/07 05:14:46;;;;;;;8.17;4.43;;;5.10;99.90;;;;;;5060847;28;20199;-85
2021/05/07 05:17:13;;;;;;;7.40;4.97;;;5.30;99.90;;;;;;5055459;28;20296;-85
2021/05/07 05:19:40;;;;;;;8.10;4.97;;;5.30;99.90;;;;;;5057150;28;20230;-85
2021/05/07 05:22:06;;;;;;;7.70;5.00;;;5.30;99.90;;;;;;5053314;28;20205;-85
2021/05/07 05:24:32;;;;;;;7.03;5.10;;;5.40;99.90;;;;;;5060321;28;20206;-86
2021/05/07 05:26:59;;;;;;;10.27;6.80;;;5.60;99.90;;;;;;5051547;28;20226;-86
2021/05/07 05:29:26;;;;;;;8.70;5.77;;;5.60;99.90;;;;;;5053756;28;20223;-86
2021/05/07 05:31:53;;;;;;;7.70;5.13;;;5.70;99.90;;;;;;5047227;28;20679;-87
2021/05/07 05:34:19;;;;;;;9.23;5.20;;;6.10;99.90;;;;;;5046358;28;20597;-88
2021/05/07 05:36:46;;;;;;;5.83;4.77;;;6.90;99.90;;;;;;5056752;28;20707;-90
2021/05/07 05:39:15;;;;;;;8.27;5.20;;;7.20;99.90;;;;;;5053367;28;20242;-90
2021/05/07 05:41:42;;;;;;;7.23;5.23;;;6.80;99.90;;;;;;5059368;28;20207;-88
2021/05/07 05:44:09;;;;;;;6.40;5.27;;;7.00;99.90;;;;;;5059749;28;20580;-89
2021/05/07 05:46:36;;;;;;;6.90;5.30;;;6.60;99.90;;;;;;5042373;28;20721;-87
2021/05/07 05:49:03;;;;;;;10.70;6.50;;;6.40;99.90;;;;;;5044739;28;20214;-88
2021/05/07 05:51:30;;;;;;;9.63;6.40;;;6.50;99.90;;;;;;5053808;28;20202;-88
2021/05/07 05:53:57;;;;;;;9.23;6.90;;;6.60;99.90;;;;;;5052189;28;20736;-87
2021/05/07 05:56:23;;;;;;;10.70;7.30;;;6.60;99.90;;;;;;5057872;28;20947;-87
2021/05/07 05:58:49;;;;;;;10.87;7.50;;;6.40;99.90;;;;;;5050985;28;20196;-86
2021/05/07 06:01:16;;;;;;;11.80;8.23;;;6.30;99.90;;;;;;5049665;28;20207;-86
2021/05/07 06:03:42;;;;;;;12.53;8.50;;;6.40;99.90;;;;;;5061140;28;20672;-86
2021/05/07 06:06:08;;;;;;;13.00;8.77;;;6.60;99.90;;;;;;5066398;28;20206;-86
2021/05/07 06:08:35;;;;;;;17.57;11.30;;;6.50;99.90;;;;;;5050668;28;20719;-85
2021/05/07 06:11:02;;;;;;;18.00;11.77;;;6.40;99.90;;;;;;5046783;28;20203;-86
2021/05/07 06:13:28;;;;;;;19.00;12.07;;;6.30;99.90;;;;;;5051500;28;20214;-86
2021/05/07 06:15:54;;;;;;;18.93;11.47;;;6.30;99.90;;;;;;5054040;28;20584;-85
2021/05/07 06:18:21;;;;;;;17.53;12.00;;;6.40;99.90;;;;;;5043014;28;20231;-86
2021/05/07 06:20:47;;;;;;;18.80;12.00;;;6.50;99.90;;;;;;5048501;28;20211;-86
2021/05/07 06:23:13;;;;;;;18.40;12.67;;;6.90;99.90;;;;;;5051904;28;20214;-85
2021/05/07 06:25:39;;;;;;;16.57;11.27;;;7.40;99.90;;;;;;5053895;28;20206;-85
2021/05/07 06:28:07;;;;;;;17.10;11.37;;;7.20;99.90;;;;;;5049882;28;20227;-86
2021/05/07 06:30:33;;;;;;;18.10;12.43;;;6.90;99.90;;;;;;5050396;28;20202;-86
2021/05/07 06:32:59;;;;;;;17.57;11.97;;;6.90;99.90;;;;;;5052016;28;20563;-86
2021/05/07 06:35:26;;;;;;;17.63;12.03;;;6.90;99.90;;;;;;5051486;28;20290;-87
2021/05/07 06:37:53;;;;;;;18.93;12.00;;;7.00;99.90;;;;;;5039936;28;20235;-86
2021/05/07 06:40:19;;;;;;;16.90;10.93;;;6.80;99.90;;;;;;5037673;28;20200;-86
2021/05/07 06:42:47;;;;;;;18.77;11.53;;;6.90;99.90;;;;;;5051819;28;20656;-85
2021/05/07 06:45:15;;;;;;;17.30;11.83;;;6.90;99.90;;;;;;5051716;28;20289;-86
2021/05/07 06:47:42;;;;;;;18.83;12.47;;;6.80;99.90;;;;;;5050342;28;20250;-86
2021/05/07 06:50:11;;;;;;;18.17;11.93;;;6.90;99.90;;;;;;5051939;28;20257;-86
2021/05/07 06:52:38;;;;;;;18.97;11.80;;;6.90;99.90;;;;;;5041597;28;20211;-86
2021/05/07 06:55:06;;;;;;;16.43;10.90;;;6.70;99.90;;;;;;5051760;28;20671;-86
2021/05/07 06:57:32;;;;;;;17.63;10.90;;;6.70;99.90;;;;;;5051208;28;20222;-86
2021/05/07 06:59:58;;;;;;;17.00;10.53;;;6.60;99.90;;;;;;5055530;28;20694;-85
2021/05/07 07:02:26;;;;;;;17.87;10.63;;;6.60;99.90;;;;;;5056502;28;20210;-86
2021/05/07 07:04:52;;;;;;;16.60;10.93;;;6.60;99.90;;;;;;5058048;28;20202;-86
2021/05/07 07:07:18;;;;;;;14.63;9.17;;;6.90;99.90;;;;;;5053709;28;20222;-85
2021/05/07 07:09:44;;;;;;;16.13;10.43;;;6.90;99.90;;;;;;5065155;28;20222;-85
2021/05/07 07:12:11;;;;;;;15.77;9.77;;;7.30;99.90;;;;;;5057690;28;20224;-86
2021/05/07 07:14:38;;;;;;;15.27;10.33;;;8.30;99.90;;;;;;5061626;28;20316;-86
2021/05/07 07:17:05;;;;;;;16.33;10.17;;;7.90;99.90;;;;;;5057826;28;20773;-86
2021/05/07 07:19:33;;;;;;;16.13;9.77;;;7.90;99.90;;;;;;5055377;28;20206;-85
2021/05/07 07:21:59;;;;;;;16.53;10.40;;;7.40;99.90;;;;;;5046701;28;20683;-85
2021/05/07 07:24:26;;;;;;;13.93;9.57;;;7.40;99.90;;;;;;5046403;28;20254;-86
2021/05/07 07:26:52;;;;;;;14.00;9.23;;;7.70;99.90;;;;;;5044880;28;20223;-86
2021/05/07 07:29:19;;;;;;;14.43;8.83;;;7.40;99.90;;;;;;5059606;28;20638;-85
2021/05/07 07:31:45;;;;;;;13.03;8.97;;;7.50;99.90;;;;;;5054973;28;20203;-86
2021/05/07 07:34:11;;;;;;;11.47;8.30;;;7.50;99.90;;;;;;5044636;28;20203;-86
2021/05/07 07:36:39;;;;;;;13.67;7.93;;;7.50;99.90;;;;;;5047562;28;20227;-85
2021/05/07 07:39:06;;;;;;;9.67;6.77;;;7.30;99.90;;;;;;5051720;28;20687;-85
2021/05/07 07:41:32;;;;;;;10.87;7.57;;;7.40;99.90;;;;;;5056821;28;20210;-85
2021/05/07 07:43:58;;;;;;;10.87;7.67;;;7.40;99.90;;;;;;5051159;28;20619;-85
2021/05/07 07:46:24;;;;;;;9.50;6.63;;;7.40;99.90;;;;;;5056927;28;20203;-86
2021/05/07 07:48:52;;;;;;;11.10;7.60;;;7.30;99.90;;;;;;5054046;28;20222;-85
2021/05/07 07:51:19;;;;;;;12.40;8.20;;;7.20;99.90;;;;;;5050445;28;20637;-85
2021/05/07 07:53:46;;;;;;;10.57;7.27;;;7.40;99.90;;;;;;5052424;28;20209;-85
2021/05/07 07:56:12;;;;;;;11.33;7.30;;;7.50;99.90;;;;;;5050202;28;20207;-86
2021/05/07 07:58:39;;;;;;;11.10;7.00;;;7.70;99.90;;;;;;5058909;28;20226;-85
2021/05/07 08:01:05;;;;;;;9.57;7.03;;;7.60;99.90;;;;;;5058876;28;20203;-85
2021/05/07 08:03:31;;;;;;;9.30;6.57;;;7.90;99.90;;;;;;5059733;28;20228;-85
2021/05/07 08:05:57;;;;;;;11.87;6.87;;;7.90;99.90;;;;;;5061692;28;20206;-85
2021/05/07 08:08:24;;;;;;;12.97;7.70;;;7.70;99.90;;;;;;5056174;28;20252;-86
2021/05/07 08:10:51;;;;;;;10.23;6.80;;;7.90;99.90;;;;;;5057459;28;20210;-86
2021/05/07 08:13:18;;;;;;;12.80;8.13;;;7.90;99.90;;;;;;5065691;28;20666;-85
2021/05/07 08:15:44;;;;;;;11.20;7.17;;;8.00;99.90;;;;;;5062508;28;20664;-85
2021/05/07 08:18:10;;;;;;;9.07;6.30;;;8.20;99.90;;;;;;5060868;28;20248;-84
2021/05/07 08:20:37;;;;;;;11.30;6.70;;;8.50;99.90;;;;;;5053505;28;20207;-86
2021/05/07 08:23:03;;;;;;;8.10;5.53;;;9.00;99.90;;;;;;5053597;28;20741;-86
2021/05/07 08:25:30;;;;;;;6.57;5.13;;;8.90;99.90;;;;;;5059624;28;20206;-85
2021/05/07 08:27:57;;;;;;;7.93;5.60;;;9.00;99.90;;;;;;5069635;28;20227;-86
2021/05/07 08:30:23;;;;;;;9.50;5.63;;;8.40;99.90;;;;;;5060719;28;20219;-85
2021/05/07 08:32:50;;;;;;;6.97;5.10;;;8.30;99.90;;;;;;5057052;28;20209;-86
2021/05/07 08:35:16;;;;;;;8.20;5.10;;;8.30;99.90;;;;;;5048455;28;20195;-85
2021/05/07 08:37:43;;;;;;;8.57;5.43;;;8.20;99.90;;;;;;5062921;22;20287;-86
2021/05/07 08:40:12;;;;;;;8.10;5.33;;;8.20;99.90;;;;;;5068598;28;20237;-86
2021/05/07 08:42:39;;;;;;;8.40;5.10;;;8.20;99.90;;;;;;5069444;28;20206;-85
2021/05/07 08:45:08;;;;;;;5.07;3.90;;;8.10;99.90;;;;;;5072506;28;20310;-87
2021/05/07 08:47:35;;;;;;;6.40;4.33;;;7.90;99.90;;;;;;5068072;28;20298;-86
2021/05/07 08:50:02;;;;;;;7.97;4.13;;;7.60;99.90;;;;;;5069478;28;20268;-86
2021/05/07 08:52:29;;;;;;;5.40;4.00;;;7.50;99.90;;;;;;5071890;28;20202;-86
2021/05/07 08:54:56;;;;;;;5.20;4.00;;;7.70;99.90;;;;;;5070488;28;20272;-86
2021/05/07 08:57:22;;;;;;;5.90;4.03;;;7.70;99.90;;;;;;5070197;28;20591;-86
2021/05/07 08:59:49;;;;;;;4.37;3.57;;;7.90;99.90;;;;;;5071277;28;20698;-86
2021/05/07 09:02:26;;;;;;;5.60;3.27;;;7.80;99.90;;;;;;5064501;28;20609;-86
2021/05/07 09:04:55;;;;;;;5.10;3.37;;;8.00;99.90;;;;;;5071107;28;20202;-86
2021/05/07 09:07:22;;;;;;;5.77;3.43;;;8.20;99.90;;;;;;5068945;28;20301;-87
2021/05/07 09:09:49;;;;;;;6.07;3.33;;;8.30;99.90;;;;;;5065192;28;20234;-86
2021/05/07 09:12:27;;;;;;;3.80;3.30;;;8.70;99.90;;;;;;5062740;28;20686;-86
2021/05/07 09:14:54;;;;;;;3.80;3.20;;;9.10;99.90;;;;;;5060226;28;20611;-87
2021/05/07 09:17:22;;;;;;;3.70;3.30;;;9.00;99.90;;;;;;5060443;28;20734;-86
2021/05/07 09:19:50;;;;;;;4.37;3.40;;;9.10;99.90;;;;;;5060448;28;20680;-86
2021/05/07 09:22:24;;;;;;;4.70;3.63;;;9.70;99.90;;;;;;5057374;28;20220;-86
2021/05/07 09:25:01;;;;;;;5.10;3.60;;;9.50;99.90;;;;;;5062614;28;20260;-86
2021/05/07 09:27:27;;;;;;;6.27;3.60;;;9.20;99.90;;;;;;5060880;28;20218;-86
2021/05/07 09:29:54;;;;;;;6.93;4.50;;;9.20;99.90;;;;;;5061429;28;20230;-87
2021/05/07 09:32:30;;;;;;;6.63;4.27;;;9.90;99.90;;;;;;5060587;28;20207;-87
2021/05/07 09:35:08;;;;;;;4.53;3.80;;;10.40;99.90;;;;;;5062161;28;20214;-87
2021/05/07 09:37:34;;;;;;;5.87;4.10;;;10.50;99.90;;;;;;5062208;28;20726;-88
2021/05/07 09:40:13;;;;;;;5.33;4.00;;;11.50;99.90;;;;;;5059240;28;20195;-88
2021/05/07 09:42:40;;;;;;;4.80;3.37;;;10.80;99.90;;;;;;5054575;28;20651;-87
2021/05/07 09:45:21;;;;;;;4.43;3.60;;;10.40;99.90;;;;;;5062654;28;20198;-89
2021/05/07 09:47:49;;;;;;;4.60;3.70;;;9.90;99.90;;;;;;5060008;28;20653;-88
2021/05/07 09:50:19;;;;;;;6.07;4.20;;;9.70;99.90;;;;;;5059491;28;20226;-87
2021/05/07 09:52:48;;;;;;;5.57;3.53;;;9.60;99.90;;;;;;5072250;28;20202;-87
2021/05/07 09:55:14;;;;;;;5.23;3.80;;;9.80;99.90;;;;;;5071210;28;20198;-89
2021/05/07 10:04:11;;;;;;;4.43;3.67;;;10.70;99.90;;;;;;5000132;28;20845;-86
2021/05/07 10:06:40;;;;;;;7.00;3.90;;;11.40;99.90;;;;;;5065214;28;20221;-87
2021/05/07 10:09:25;;;;;;;4.30;3.10;;;11.70;99.90;;;;;;5070790;28;21003;-87
2021/05/07 10:15:36;;;;;;;3.97;2.90;;;12.00;99.90;;;;;;5057253;28;20202;-88
2021/05/07 10:38:18;;;;;;;2.60;2.40;;;13.20;99.90;;;;;;4908377;29;20331;-88
2021/05/07 10:40:46;;;;;;;3.07;2.40;;;12.80;99.90;;;;;;4985513;28;20209;-88
2021/05/07 10:43:13;;;;;;;2.97;2.60;;;12.20;99.90;;;;;;4995730;28;20295;-88
2021/05/07 10:45:50;;;;;;;2.40;2.20;;;11.60;99.90;;;;;;5062934;28;20234;-88
2021/05/07 10:48:20;;;;;;;2.53;2.30;;;11.70;99.90;;;;;;5064771;28;20237;-87
2021/05/07 10:50:49;;;;;;;2.70;2.50;;;11.50;99.90;;;;;;5068920;28;20213;-88
2021/05/07 10:53:35;;;;;;;3.17;2.80;;;11.20;99.90;;;;;;5068613;28;20293;-86
2021/05/07 10:56:13;;;;;;;4.27;2.80;;;10.90;99.90;;;;;;5059080;28;20659;-88
2021/05/07 10:58:39;;;;;;;3.17;2.80;;;10.80;99.90;;;;;;5058686;28;20231;-86
2021/05/07 11:01:23;;;;;;;3.30;3.00;;;11.40;99.90;;;;;;5064722;28;20865;-88
2021/05/07 11:04:04;;;;;;;4.53;2.73;;;12.60;99.90;;;;;;5063903;28;20631;-87
2021/05/07 11:06:32;;;;;;;3.97;3.13;;;12.00;99.90;;;;;;5068459;28;20293;-88
2021/05/07 11:09:11;;;;;;;2.40;2.20;;;11.80;99.90;;;;;;5064199;28;20230;-87
2021/05/07 11:11:37;;;;;;;2.53;2.10;;;11.80;99.90;;;;;;5068213;28;20565;-87
2021/05/07 11:14:04;;;;;;;2.67;2.10;;;11.80;99.90;;;;;;5065296;28;20214;-87
2021/05/07 11:16:40;;;;;;;2.83;2.53;;;12.20;99.90;;;;;;5066411;28;20202;-87
2021/05/07 11:19:20;;;;;;;2.60;2.40;;;11.50;99.90;;;;;;5067633;28;20234;-89
2021/05/07 11:21:50;;;;;;;2.57;2.37;;;11.20;99.90;;;;;;5068404;28;20247;-86
2021/05/07 11:24:17;;;;;;;2.53;2.20;;;11.10;99.90;;;;;;5067783;28;20256;-87
2021/05/07 11:26:44;;;;;;;2.27;2.07;;;11.30;99.90;;;;;;5062152;28;20202;-88
2021/05/07 11:29:10;;;;;;;2.93;2.20;;;11.60;99.90;;;;;;5067558;28;20230;-87
2021/05/07 11:31:36;;;;;;;2.10;1.87;;;12.30;99.90;;;;;;5068374;28;20206;-88
2021/05/07 11:34:03;;;;;;;2.40;2.20;;;12.70;99.90;;;;;;5057303;28;20631;-87
2021/05/07 11:36:29;;;;;;;2.40;2.20;;;12.80;99.90;;;;;;5062723;28;20289;-88
2021/05/07 11:38:56;;;;;;;2.30;2.20;;;12.30;99.90;;;;;;5061897;28;20238;-88
2021/05/07 11:41:24;;;;;;;3.37;2.30;;;12.20;99.90;;;;;;5064566;28;20231;-87
2021/05/07 11:43:52;;;;;;;2.70;2.50;;;12.20;99.90;;;;;;5063699;28;20278;-87
2021/05/07 11:46:19;;;;;;;2.50;2.27;;;12.60;99.90;;;;;;5073267;28;20221;-87
2021/05/07 11:48:46;;;;;;;4.03;2.33;;;12.60;99.90;;;;;;5071318;28;20230;-88
2021/05/07 11:51:13;;;;;;;2.63;2.23;;;13.10;99.90;;;;;;5063302;28;20683;-88
2021/05/07 11:53:40;;;;;;;2.43;2.23;;;12.40;99.90;;;;;;5066702;28;20234;-88
2021/05/07 11:56:18;;;;;;;2.27;2.07;;;12.20;99.90;;;;;;5071805;28;20210;-87
2021/05/07 11:58:49;;;;;;;2.10;2.00;;;12.20;99.90;;;;;;5070064;28;20260;-89
2021/05/07 12:01:20;;;;;;;1.90;1.80;;;12.80;99.90;;;;;;5068604;28;20222;-89
2021/05/07 12:03:50;;;;;;;1.80;1.70;;;13.20;99.90;;;;;;5066529;28;20707;-91
2021/05/07 12:06:21;;;;;;;1.90;1.80;;;13.20;99.90;;;;;;5062151;28;20211;-90
2021/05/07 12:09:08;;;;;;;3.10;1.90;;;12.70;99.90;;;;;;5070909;28;20683;-90
2021/05/07 12:11:35;;;;;;;2.50;2.30;;;13.30;99.90;;;;;;5062681;28;20620;-90
2021/05/07 12:14:12;;;;;;;3.00;2.30;;;13.00;99.90;;;;;;5067643;28;20263;-89
2021/05/07 12:16:43;;;;;;;2.00;1.90;;;13.20;99.90;;;;;;5054288;28;20293;-90
2021/05/07 12:19:19;;;;;;;2.20;2.00;;;13.20;99.90;;;;;;5070135;28;20360;-89
2021/05/07 12:21:46;;;;;;;3.33;2.27;;;13.10;99.90;;;;;;5073079;28;20240;-90
2021/05/07 12:24:24;;;;;;;3.37;2.80;;;12.90;99.90;;;;;;5069804;28;20266;-91
2021/05/07 12:27:02;;;;;;;2.00;1.90;;;13.30;99.90;;;;;;5070654;28;20733;-90
2021/05/07 12:29:38;;;;;;;2.23;2.03;;;13.60;99.90;;;;;;5072872;28;20245;-91
2021/05/07 12:34:54;;;;;;;2.30;2.13;;;14.40;99.90;;;;;;5067771;28;20290;-90
2021/05/07 12:37:21;;;;;;;2.40;2.20;;;13.80;99.90;;;;;;5062047;28;20234;-88
2021/05/07 12:39:48;;;;;;;2.70;2.50;;;13.10;99.90;;;;;;5066668;28;20297;-88
2021/05/07 12:42:14;;;;;;;3.77;2.27;;;12.30;99.90;;;;;;5073044;28;20210;-86
2021/05/07 12:44:42;;;;;;;2.67;2.40;;;12.80;99.90;;;;;;5059271;28;20218;-86
2021/05/07 12:47:08;;;;;;;2.87;2.43;;;13.20;99.90;;;;;;5073778;28;20202;-86
2021/05/07 12:49:35;;;;;;;3.07;2.30;;;13.20;99.90;;;;;;5074018;28;20225;-87
2021/05/07 12:52:01;;;;;;;2.30;2.10;;;13.30;99.90;;;;;;5074112;28;20307;-88
2021/05/07 12:54:31;;;;;;;2.87;2.23;;;13.40;99.90;;;;;;5074744;28;20214;-87
2021/05/07 12:57:09;;;;;;;2.37;2.00;;;13.70;99.90;;;;;;5068761;28;20677;-90
2021/05/07 13:00:16;;;;;;;2.40;2.20;;;13.80;99.90;;;;;;5073182;28;20206;-87
2021/05/07 13:02:42;;;;;;;2.67;2.13;;;13.70;99.90;;;;;;5053982;28;20199;-87
2021/05/07 13:05:11;;;;;;;3.60;2.67;;;13.40;99.90;;;;;;5069285;28;20575;-88
2021/05/07 13:07:41;;;;;;;2.37;2.17;;;13.10;99.90;;;;;;5054834;28;20263;-88
2021/05/07 13:10:08;;;;;;;2.30;2.10;;;13.00;99.90;;;;;;5055827;28;20225;-87
2021/05/07 13:12:46;;;;;;;2.53;2.00;;;13.60;99.90;;;;;;5065418;28;20249;-87
2021/05/07 13:15:29;;;;;;;2.27;2.00;;;13.40;99.90;;;;;;5064649;28;20202;-87
2021/05/07 13:17:56;;;;;;;3.33;2.23;;;13.70;99.90;;;;;;5068286;28;20226;-87
2021/05/07 13:20:29;;;;;;;1.70;1.60;;;14.00;99.90;;;;;;5066873;28;20234;-87
2021/05/07 13:22:59;;;;;;;2.37;2.10;;;13.30;99.90;;;;;;5065879;28;20202;-89
2021/05/07 13:25:25;;;;;;;1.93;1.60;;;13.00;99.90;;;;;;5066576;28;20211;-89